Time;durP1;ratioP1;P1;durP2;ratioP2;P2;SDS_P1;SDS_P2;PMS_P1;PMS_P2;Temp;Humidity;BMP_temperature;BMP_pressure;BME280_temperature;BME280_humidity;BME280_pressure;Samples;Min_cycle;Max_cycle;Signal;HPM_P1;HPM_P2
2021/12/25 00:02:26;;;;;;;5.53;3.35;;;8.40;77.70;;;;;;5065630;28;20473;-73
2021/12/25 00:04:53;;;;;;;5.63;4.20;;;8.40;77.60;;;;;;5047671;28;20024;-74
2021/12/25 00:07:19;;;;;;;4.78;3.55;;;8.40;77.60;;;;;;5047639;28;20067;-73
2021/12/25 00:09:45;;;;;;;5.63;3.38;;;8.40;77.60;;;;;;5065140;28;20511;-72
2021/12/25 00:12:11;;;;;;;5.85;3.30;;;8.30;77.40;;;;;;5065410;28;20028;-72
2021/12/25 00:14:37;;;;;;;4.50;3.67;;;8.30;77.50;;;;;;5053540;28;20036;-72
2021/12/25 00:17:03;;;;;;;5.13;3.53;;;8.30;77.40;;;;;;5047182;28;20041;-72
2021/12/25 00:19:29;;;;;;;5.03;3.30;;;8.20;77.30;;;;;;5033842;28;20029;-72
2021/12/25 00:21:55;;;;;;;6.15;3.85;;;8.20;77.30;;;;;;5047804;28;20508;-72
2021/12/25 00:24:21;;;;;;;5.72;3.67;;;8.20;77.30;;;;;;5048393;28;20464;-73
2021/12/25 00:27:21;;;;;;;4.38;3.30;;;8.20;77.30;;;;;;5048862;28;20446;-72
2021/12/25 00:34:41;;;;;;;5.47;3.70;;;8.10;77.20;;;;;;5036991;28;20086;-72
2021/12/25 00:37:08;;;;;;;5.60;4.30;;;8.00;77.00;;;;;;5048808;28;20098;-72
2021/12/25 00:39:34;;;;;;;6.95;3.75;;;8.00;77.00;;;;;;5048548;28;20068;-72
2021/12/25 00:42:01;;;;;;;6.07;3.13;;;8.00;77.00;;;;;;5048616;28;20091;-72
2021/12/25 00:44:28;;;;;;;5.30;3.22;;;7.90;76.80;;;;;;5038521;28;20056;-72
2021/12/25 00:46:55;;;;;;;6.97;3.25;;;7.90;76.80;;;;;;5046977;28;20064;-72
2021/12/25 00:49:21;;;;;;;7.10;3.92;;;7.90;76.80;;;;;;5048008;28;20025;-72
2021/12/25 00:51:47;;;;;;;4.50;3.50;;;7.90;76.80;;;;;;5048379;28;20039;-72
2021/12/25 00:54:15;;;;;;;5.93;3.42;;;7.90;76.80;;;;;;5046373;28;20463;-73
2021/12/25 00:56:41;;;;;;;6.38;2.90;;;7.90;76.80;;;;;;5063603;28;20037;-72
2021/12/25 00:59:08;;;;;;;7.47;3.28;;;7.90;76.80;;;;;;5047055;28;20033;-72
2021/12/25 01:01:34;;;;;;;5.15;3.45;;;7.80;76.60;;;;;;5063548;28;20099;-71
2021/12/25 01:04:00;;;;;;;8.10;3.15;;;7.80;76.60;;;;;;5046160;28;20021;-72
2021/12/25 01:06:27;;;;;;;5.70;3.25;;;7.80;76.60;;;;;;5046652;28;20037;-72
2021/12/25 01:08:53;;;;;;;3.97;3.28;;;7.90;76.80;;;;;;5063286;28;20029;-72
2021/12/25 01:11:27;;;;;;;6.05;3.03;;;7.90;76.80;;;;;;5046252;28;20040;-72
2021/12/25 01:14:01;;;;;;;5.28;3.30;;;7.90;76.80;;;;;;5046219;28;20025;-72
2021/12/25 01:23:07;;;;;;;3.70;2.70;;;7.90;76.70;;;;;;5046615;28;20082;-71
2021/12/25 01:33:24;;;;;;;5.35;3.22;;;7.90;76.70;;;;;;5056275;28;20059;-72
2021/12/25 01:47:59;;;;;;;5.05;4.10;;;8.00;76.70;;;;;;5065368;28;20384;-72
2021/12/25 01:50:28;;;;;;;4.32;3.25;;;8.00;76.70;;;;;;5048970;28;20044;-72
2021/12/25 01:52:55;;;;;;;5.25;4.05;;;8.00;76.70;;;;;;5048608;28;20029;-72
2021/12/25 01:55:27;;;;;;;6.75;3.58;;;8.00;76.70;;;;;;5048790;28;20035;-73
2021/12/25 01:57:55;;;;;;;6.20;3.47;;;8.10;77.00;;;;;;5067390;28;20029;-72
2021/12/25 02:00:31;;;;;;;5.93;4.00;;;8.10;77.00;;;;;;5048454;28;20134;-73
2021/12/25 02:02:58;;;;;;;7.35;3.50;;;8.10;77.00;;;;;;5066796;28;20032;-73
2021/12/25 02:05:25;;;;;;;5.70;3.38;;;8.10;77.00;;;;;;5028518;28;20102;-72
2021/12/25 02:07:51;;;;;;;5.05;4.13;;;8.10;77.10;;;;;;5045773;28;20040;-73
2021/12/25 02:10:19;;;;;;;4.78;3.65;;;8.10;77.10;;;;;;5045409;28;20029;-72
2021/12/25 02:12:49;;;;;;;4.95;4.07;;;8.10;77.10;;;;;;5028551;28;20323;-72
2021/12/25 02:15:18;;;;;;;4.20;3.15;;;8.10;77.10;;;;;;5046564;28;20116;-71
2021/12/25 02:18:14;;;;;;;5.38;3.15;;;8.20;77.40;;;;;;5029732;28;20103;-73
2021/12/25 02:21:09;;;;;;;4.78;3.80;;;8.20;77.40;;;;;;5045957;28;20082;-72
2021/12/25 02:23:37;;;;;;;4.45;3.38;;;8.20;77.30;;;;;;5044992;28;20508;-72
2021/12/25 02:26:04;;;;;;;5.22;3.13;;;8.20;77.30;;;;;;5046159;28;20074;-73
2021/12/25 02:28:30;;;;;;;6.70;3.92;;;8.20;77.40;;;;;;5049754;28;20103;-72
2021/12/25 02:31:00;;;;;;;4.55;3.03;;;8.30;77.50;;;;;;5065116;28;20028;-72
2021/12/25 02:33:27;;;;;;;4.10;3.33;;;8.30;77.50;;;;;;5054651;28;20039;-73
2021/12/25 02:35:55;;;;;;;7.07;3.65;;;8.30;77.50;;;;;;5066396;28;20036;-72
2021/12/25 02:38:21;;;;;;;6.25;3.63;;;8.30;77.50;;;;;;5047657;28;20040;-72
2021/12/25 02:40:47;;;;;;;5.20;3.58;;;8.20;77.40;;;;;;5046701;28;20033;-72
2021/12/25 02:43:15;;;;;;;7.35;3.50;;;8.30;77.60;;;;;;5045531;28;20381;-73
2021/12/25 02:45:41;;;;;;;6.82;3.45;;;8.20;77.40;;;;;;5053436;28;20028;-71
2021/12/25 02:48:10;;;;;;;7.00;3.80;;;8.20;77.40;;;;;;5081900;28;20068;-72
2021/12/25 02:50:39;;;;;;;7.03;4.07;;;8.20;77.50;;;;;;5053107;28;20028;-72
2021/12/25 02:53:07;;;;;;;4.75;3.45;;;8.20;77.50;;;;;;5053012;28;20423;-73
2021/12/25 02:55:35;;;;;;;5.65;3.42;;;8.20;77.50;;;;;;5053191;28;20033;-71
2021/12/25 02:58:02;;;;;;;4.18;3.17;;;8.10;77.40;;;;;;5052932;28;20039;-72
2021/12/25 03:00:36;;;;;;;4.88;3.45;;;8.10;77.40;;;;;;5052668;28;20021;-72
2021/12/25 03:03:04;;;;;;;5.22;3.80;;;8.10;77.40;;;;;;5071032;28;20119;-72
2021/12/25 03:05:30;;;;;;;6.28;3.95;;;8.10;77.40;;;;;;5052825;28;20036;-71
2021/12/25 03:07:56;;;;;;;7.35;4.20;;;8.00;77.30;;;;;;5052753;28;20082;-72
2021/12/25 03:10:27;;;;;;;4.63;4.10;;;8.00;77.30;;;;;;5052783;28;20040;-72
2021/12/25 03:13:05;;;;;;;9.13;4.10;;;8.00;77.30;;;;;;5053401;28;20029;-73
2021/12/25 03:15:45;;;;;;;5.47;4.18;;;8.10;77.40;;;;;;5069758;28;20036;-71
2021/12/25 03:18:23;;;;;;;5.00;4.03;;;8.00;77.30;;;;;;5070319;28;20028;-72
2021/12/25 03:20:52;;;;;;;6.13;5.30;;;8.00;77.30;;;;;;5070730;28;20028;-72
2021/12/25 03:23:21;;;;;;;5.35;4.00;;;8.00;77.30;;;;;;5070481;28;20476;-72
2021/12/25 03:25:48;;;;;;;5.65;4.00;;;7.90;77.10;;;;;;5070117;28;20044;-72
2021/12/25 03:28:17;;;;;;;6.55;4.95;;;7.90;77.10;;;;;;5053628;28;20321;-72
2021/12/25 03:30:43;;;;;;;6.05;4.40;;;7.90;77.10;;;;;;5053190;28;20043;-71
2021/12/25 03:33:13;;;;;;;5.00;4.43;;;7.90;77.10;;;;;;5052646;28;20480;-72
2021/12/25 03:35:40;;;;;;;6.25;4.20;;;7.80;77.00;;;;;;5070208;28;20040;-72
2021/12/25 03:38:09;;;;;;;5.38;4.47;;;7.80;77.00;;;;;;5052488;28;20065;-72
2021/12/25 03:40:36;;;;;;;7.68;4.28;;;7.80;77.00;;;;;;5052578;28;20036;-72
2021/12/25 03:43:03;;;;;;;6.82;4.65;;;7.80;77.00;;;;;;5052785;28;20059;-72
2021/12/25 03:45:31;;;;;;;6.53;4.45;;;7.80;77.00;;;;;;5068936;28;20025;-72
2021/12/25 03:48:08;;;;;;;6.85;3.92;;;7.80;77.00;;;;;;5053299;28;20190;-72
2021/12/25 03:58:53;;;;;;;6.15;4.25;;;7.70;76.80;;;;;;5073865;28;20021;-73
2021/12/25 04:06:30;;;;;;;10.73;5.40;;;7.60;76.70;;;;;;5072262;28;20552;-72
2021/12/25 04:08:57;;;;;;;7.47;5.07;;;7.60;76.80;;;;;;5056168;28;20384;-71
2021/12/25 04:11:29;;;;;;;5.70;4.20;;;7.60;76.80;;;;;;5072382;28;20439;-74
2021/12/25 04:13:56;;;;;;;8.33;5.33;;;7.60;76.80;;;;;;5056227;28;20050;-73
2021/12/25 04:16:28;;;;;;;7.53;4.47;;;7.60;76.80;;;;;;5072429;28;20492;-74
2021/12/25 04:18:56;;;;;;;5.88;5.00;;;7.60;76.80;;;;;;5072637;28;20519;-75
2021/12/25 04:21:24;;;;;;;5.60;4.63;;;7.60;76.80;;;;;;5056592;28;20039;-74
2021/12/25 04:23:50;;;;;;;8.00;5.20;;;7.70;77.00;;;;;;5055528;28;20027;-73
2021/12/25 04:26:16;;;;;;;9.48;4.60;;;7.70;77.00;;;;;;5073124;28;20036;-75
2021/12/25 04:28:59;;;;;;;6.68;4.65;;;7.70;76.90;;;;;;5055607;28;20032;-75
2021/12/25 04:48:20;;;;;;;5.97;4.88;;;7.90;77.20;;;;;;5072779;28;20411;-75
2021/12/25 05:04:38;;;;;;;7.20;5.60;;;8.10;77.60;;;;;;5054816;28;20036;-74
2021/12/25 05:07:13;;;;;;;7.75;5.88;;;8.10;77.50;;;;;;5070946;28;20536;-74
2021/12/25 05:09:40;;;;;;;6.47;4.88;;;8.10;77.60;;;;;;5054940;28;20029;-74
2021/12/25 05:12:07;;;;;;;5.90;4.57;;;8.20;77.80;;;;;;5071620;28;20024;-75
2021/12/25 05:14:34;;;;;;;7.00;4.35;;;8.20;77.80;;;;;;5054535;28;20507;-74
2021/12/25 05:17:00;;;;;;;11.65;5.00;;;8.20;77.90;;;;;;5055022;28;20064;-74
2021/12/25 05:19:26;;;;;;;5.97;4.80;;;8.20;77.90;;;;;;5054921;28;20036;-74
2021/12/25 05:21:53;;;;;;;7.03;4.80;;;8.30;78.00;;;;;;5054831;28;20036;-74
2021/12/25 05:24:20;;;;;;;6.05;4.38;;;8.20;77.90;;;;;;5054458;28;20065;-73
2021/12/25 05:26:50;;;;;;;8.43;5.30;;;8.30;78.00;;;;;;5054224;28;20024;-74
2021/12/25 05:29:23;;;;;;;5.80;4.65;;;8.30;78.00;;;;;;5055376;28;20041;-74
2021/12/25 05:31:50;;;;;;;6.65;4.32;;;8.40;78.80;;;;;;5054359;28;20028;-74
2021/12/25 05:34:48;;;;;;;6.68;4.90;;;8.40;78.30;;;;;;5052254;28;20028;-74
2021/12/25 05:37:22;;;;;;;6.07;5.32;;;8.40;78.20;;;;;;5070901;28;20039;-73
2021/12/25 05:40:27;;;;;;;6.35;4.65;;;8.40;78.20;;;;;;5056216;28;20785;-73
2021/12/25 05:42:53;;;;;;;8.18;4.63;;;8.40;78.20;;;;;;5054161;28;20028;-74
2021/12/25 05:45:22;;;;;;;4.53;3.97;;;8.40;78.20;;;;;;5054352;28;20032;-74
2021/12/25 05:48:01;;;;;;;6.55;4.35;;;8.40;78.30;;;;;;5044717;28;20048;-74
2021/12/25 05:50:48;;;;;;;5.30;3.80;;;8.50;78.40;;;;;;5037665;28;20124;-73
2021/12/25 05:53:24;;;;;;;6.97;4.13;;;8.50;78.40;;;;;;5030428;28;20078;-74
2021/12/25 05:56:23;;;;;;;4.53;3.83;;;8.50;78.50;;;;;;5003310;28;20114;-74
2021/12/25 05:59:08;;;;;;;5.80;4.47;;;8.50;78.50;;;;;;5048701;28;20480;-74
2021/12/25 06:01:52;;;;;;;4.93;3.80;;;8.60;78.60;;;;;;5029934;28;20028;-73
2021/12/25 06:04:18;;;;;;;6.55;4.88;;;8.60;78.70;;;;;;5048407;28;20033;-74
2021/12/25 06:06:43;;;;;;;6.22;4.80;;;8.60;78.70;;;;;;5049030;28;20024;-74
2021/12/25 06:09:09;;;;;;;4.85;4.30;;;8.60;78.70;;;;;;5061712;28;20032;-74
2021/12/25 06:11:39;;;;;;;6.53;4.63;;;8.60;78.70;;;;;;5046483;28;20033;-73
2021/12/25 06:14:11;;;;;;;5.30;4.53;;;8.60;78.70;;;;;;5064930;28;20047;-74
2021/12/25 06:16:50;;;;;;;6.15;4.65;;;8.70;78.90;;;;;;5048663;28;20488;-74
2021/12/25 06:19:45;;;;;;;4.88;4.38;;;8.70;78.90;;;;;;5032037;28;20132;-74
2021/12/25 06:22:37;;;;;;;4.90;4.35;;;8.70;78.90;;;;;;5038133;28;20465;-73
2021/12/25 06:25:23;;;;;;;6.88;4.93;;;8.70;78.90;;;;;;5044751;28;20033;-73
2021/12/25 06:28:08;;;;;;;5.97;4.72;;;8.80;79.00;;;;;;5023821;28;20024;-74
2021/12/25 06:30:49;;;;;;;5.38;4.75;;;8.80;79.00;;;;;;5049132;28;20103;-73
2021/12/25 06:33:18;;;;;;;6.30;5.22;;;8.80;79.00;;;;;;5048538;28;20033;-74
2021/12/25 06:35:59;;;;;;;6.07;5.15;;;8.80;79.00;;;;;;5066515;28;20036;-74
2021/12/25 06:38:44;;;;;;;6.90;4.88;;;8.90;79.20;;;;;;5056439;28;20063;-74
2021/12/25 06:41:20;;;;;;;6.88;5.70;;;8.90;79.10;;;;;;5048728;28;20124;-73
2021/12/25 06:43:48;;;;;;;5.10;4.57;;;8.90;79.20;;;;;;5032583;28;20059;-73
2021/12/25 06:46:25;;;;;;;6.70;5.38;;;8.90;79.20;;;;;;5032976;28;20044;-73
2021/12/25 06:48:51;;;;;;;6.82;5.03;;;8.90;79.20;;;;;;5061504;28;20496;-73
2021/12/25 06:51:40;;;;;;;8.13;5.60;;;8.90;79.20;;;;;;5035571;28;20041;-73
2021/12/25 06:54:25;;;;;;;5.57;4.78;;;8.90;79.20;;;;;;5064659;28;20039;-74
2021/12/25 06:57:14;;;;;;;7.40;5.13;;;9.00;79.40;;;;;;5065219;28;20036;-74
2021/12/25 06:59:41;;;;;;;6.00;5.40;;;9.00;79.30;;;;;;5029372;28;20546;-72
2021/12/25 07:02:07;;;;;;;5.85;4.78;;;8.90;79.20;;;;;;5028314;28;20469;-74
2021/12/25 07:04:52;;;;;;;6.97;5.43;;;9.00;79.40;;;;;;5045713;28;20112;-74
2021/12/25 07:07:48;;;;;;;6.10;5.30;;;9.00;79.40;;;;;;4975058;28;20109;-73
2021/12/25 07:10:22;;;;;;;6.40;5.25;;;9.00;79.30;;;;;;5044471;28;20043;-73
2021/12/25 07:12:55;;;;;;;6.15;5.45;;;9.00;79.30;;;;;;5044711;28;20059;-73
2021/12/25 07:15:41;;;;;;;5.60;4.70;;;9.10;79.50;;;;;;5014881;28;20045;-73
2021/12/25 07:18:27;;;;;;;7.80;5.18;;;9.10;79.50;;;;;;5047413;28;20048;-74
2021/12/25 07:21:08;;;;;;;6.47;5.13;;;9.10;79.50;;;;;;5048461;28;20082;-73
2021/12/25 07:23:48;;;;;;;7.40;5.53;;;9.10;79.40;;;;;;5026263;28;20048;-73
2021/12/25 07:26:27;;;;;;;7.03;5.45;;;9.20;79.60;;;;;;5054008;28;20306;-73
2021/12/25 07:29:14;;;;;;;5.63;5.00;;;9.10;79.40;;;;;;5050445;28;20043;-74
2021/12/25 07:31:40;;;;;;;6.60;5.28;;;9.20;79.60;;;;;;5069321;28;20029;-74
2021/12/25 07:34:06;;;;;;;8.77;4.68;;;9.20;79.60;;;;;;5069862;28;20047;-74
2021/12/25 07:36:32;;;;;;;5.57;4.88;;;9.20;79.60;;;;;;5051808;28;20487;-73
2021/12/25 07:39:00;;;;;;;8.05;4.93;;;9.20;79.60;;;;;;5068158;28;20060;-74
2021/12/25 07:41:26;;;;;;;7.95;3.92;;;9.30;79.80;;;;;;5073417;28;20038;-75
2021/12/25 07:43:52;;;;;;;7.57;4.82;;;9.30;79.80;;;;;;5053825;28;20029;-75
2021/12/25 07:46:23;;;;;;;7.63;4.88;;;9.30;80.00;;;;;;5065603;28;20128;-75
2021/12/25 07:48:50;;;;;;;12.55;5.68;;;9.30;80.00;;;;;;5056852;28;20199;-74
2021/12/25 07:51:16;;;;;;;10.27;5.22;;;9.40;80.20;;;;;;5069270;28;20025;-74
2021/12/25 07:53:44;;;;;;;11.38;5.45;;;9.40;80.10;;;;;;5056511;28;20112;-74
2021/12/25 07:56:12;;;;;;;13.50;6.13;;;9.40;80.10;;;;;;5048844;28;20037;-75
2021/12/25 07:58:38;;;;;;;12.40;5.88;;;9.30;79.90;;;;;;5032296;28;20029;-74
2021/12/25 08:01:05;;;;;;;12.43;6.22;;;9.40;80.50;;;;;;5031323;28;20497;-73
2021/12/25 08:03:31;;;;;;;12.98;5.82;;;9.60;81.20;;;;;;5049961;28;20028;-74
2021/12/25 08:05:57;;;;;;;12.60;6.07;;;9.70;81.20;;;;;;5047271;28;20017;-74
2021/12/25 08:08:23;;;;;;;11.30;5.63;;;9.80;81.30;;;;;;5083180;28;20055;-75
2021/12/25 08:10:50;;;;;;;14.70;6.10;;;9.90;81.40;;;;;;5063869;28;20673;-73
2021/12/25 08:13:16;;;;;;;8.50;5.30;;;10.00;81.80;;;;;;5054390;28;20132;-75
2021/12/25 08:15:43;;;;;;;10.23;4.60;;;10.10;82.20;;;;;;5078385;28;20169;-75
2021/12/25 08:18:09;;;;;;;17.85;5.35;;;10.30;82.50;;;;;;5083208;28;20486;-73
2021/12/25 08:20:59;;;;;;;14.23;6.70;;;10.40;82.40;;;;;;5027957;28;20036;-74
2021/12/25 08:23:44;;;;;;;10.52;4.88;;;10.50;82.10;;;;;;5041779;28;20442;-76
2021/12/25 08:26:29;;;;;;;14.05;5.13;;;10.50;82.00;;;;;;5066272;28;20036;-75
2021/12/25 08:29:14;;;;;;;16.48;5.63;;;10.40;81.90;;;;;;5068608;28;20123;-76
2021/12/25 08:31:59;;;;;;;10.48;4.97;;;10.40;82.20;;;;;;5065906;28;20029;-75
2021/12/25 08:34:44;;;;;;;15.60;6.65;;;10.50;82.50;;;;;;5051097;28;20479;-74
2021/12/25 08:37:15;;;;;;;10.05;4.22;;;10.60;82.60;;;;;;5054683;28;20044;-73
2021/12/25 08:39:41;;;;;;;10.13;4.38;;;10.60;82.60;;;;;;5041189;28;20476;-72
2021/12/25 08:42:09;;;;;;;12.43;5.00;;;10.60;82.70;;;;;;5066561;28;20382;-73
2021/12/25 08:44:53;;;;;;;13.57;4.70;;;10.60;82.80;;;;;;5056603;28;20476;-73
2021/12/25 08:47:20;;;;;;;13.55;4.25;;;10.60;82.80;;;;;;5055793;28;20057;-74
2021/12/25 08:49:47;;;;;;;11.43;5.40;;;10.60;82.80;;;;;;5055748;28;20031;-74
2021/12/25 08:52:16;;;;;;;13.75;4.75;;;10.60;82.90;;;;;;5078704;28;20040;-74
2021/12/25 08:54:44;;;;;;;12.57;4.05;;;10.50;82.70;;;;;;5077522;28;20106;-75
2021/12/25 08:57:11;;;;;;;7.93;3.88;;;10.60;82.90;;;;;;5076740;28;20051;-74
2021/12/25 08:59:38;;;;;;;14.05;4.75;;;10.60;82.90;;;;;;5087039;28;20059;-74
2021/12/25 09:02:09;;;;;;;12.70;4.88;;;10.60;82.90;;;;;;5085664;28;20486;-74
2021/12/25 09:04:39;;;;;;;8.98;4.13;;;10.60;82.90;;;;;;5047720;28;20033;-74
2021/12/25 09:07:06;;;;;;;8.45;4.68;;;10.60;82.90;;;;;;5067928;28;20044;-73
2021/12/25 09:09:33;;;;;;;15.00;4.70;;;10.60;82.80;;;;;;5057075;28;20031;-73
2021/12/25 09:11:59;;;;;;;11.20;4.90;;;10.60;82.80;;;;;;5070147;28;20060;-74
2021/12/25 09:14:26;;;;;;;8.20;5.05;;;10.60;82.80;;;;;;5069150;28;20020;-74
2021/12/25 09:16:52;;;;;;;11.27;4.40;;;10.60;82.70;;;;;;5060275;28;20564;-74
2021/12/25 09:19:19;;;;;;;9.45;4.30;;;10.70;82.80;;;;;;5055228;28;20167;-74
2021/12/25 09:21:45;;;;;;;9.23;4.93;;;10.70;82.70;;;;;;5075086;28;20036;-73
2021/12/25 09:24:12;;;;;;;9.18;4.90;;;10.70;82.70;;;;;;5069836;28;20016;-75
2021/12/25 09:26:38;;;;;;;11.10;5.32;;;10.70;82.60;;;;;;5081841;28;20048;-75
2021/12/25 09:29:04;;;;;;;11.90;6.03;;;10.70;82.50;;;;;;5056120;28;20051;-73
2021/12/25 09:31:31;;;;;;;10.85;4.97;;;10.70;82.50;;;;;;5067635;28;20111;-76
2021/12/25 09:33:57;;;;;;;8.57;4.97;;;10.70;82.40;;;;;;5068064;28;20040;-74
2021/12/25 09:36:23;;;;;;;10.23;5.53;;;10.70;82.30;;;;;;5068991;28;20468;-73
2021/12/25 09:38:50;;;;;;;9.23;5.22;;;10.80;82.50;;;;;;5067733;28;20044;-74
2021/12/25 09:41:16;;;;;;;10.13;4.97;;;10.80;82.40;;;;;;5050295;28;20032;-74
2021/12/25 09:43:46;;;;;;;9.20;4.85;;;10.80;82.40;;;;;;5067676;28;20459;-74
2021/12/25 09:46:13;;;;;;;9.57;5.72;;;10.80;82.30;;;;;;5067169;28;20048;-74
2021/12/25 09:48:39;;;;;;;8.63;5.10;;;10.80;82.30;;;;;;5067327;28;20086;-75
2021/12/25 09:51:06;;;;;;;8.57;5.10;;;10.80;82.20;;;;;;5060964;28;20037;-74
2021/12/25 09:53:32;;;;;;;9.07;6.35;;;10.80;82.10;;;;;;5057853;28;20036;-74
2021/12/25 09:55:58;;;;;;;14.20;5.57;;;10.80;82.10;;;;;;5066366;28;20059;-75
2021/12/25 09:58:25;;;;;;;10.30;6.82;;;10.90;82.20;;;;;;5069172;28;20063;-76
2021/12/25 10:00:52;;;;;;;9.23;5.53;;;10.80;82.00;;;;;;5066998;28;20131;-75
2021/12/25 10:03:20;;;;;;;11.73;6.45;;;10.90;82.20;;;;;;5066788;28;20036;-74
2021/12/25 10:05:48;;;;;;;11.05;6.28;;;10.80;82.00;;;;;;5066653;28;20029;-74
2021/12/25 10:08:20;;;;;;;10.13;6.80;;;10.80;81.90;;;;;;5066273;28;20112;-74
2021/12/25 10:10:54;;;;;;;13.43;8.07;;;10.90;82.00;;;;;;5067154;28;20040;-73
2021/12/25 10:13:23;;;;;;;12.90;7.68;;;11.00;82.10;;;;;;5066920;28;20697;-74
2021/12/25 10:15:57;;;;;;;11.32;7.03;;;11.00;81.90;;;;;;5067075;28;20432;-74
2021/12/25 10:18:33;;;;;;;10.10;6.55;;;11.00;81.80;;;;;;5046911;28;20021;-74
2021/12/25 10:21:21;;;;;;;9.50;6.63;;;11.00;81.70;;;;;;5046900;28;20487;-74
2021/12/25 10:24:15;;;;;;;12.00;6.82;;;11.20;81.90;;;;;;5046279;28;20064;-74
2021/12/25 10:26:44;;;;;;;10.75;6.70;;;11.20;81.70;;;;;;5046124;28;20032;-74
2021/12/25 10:29:23;;;;;;;11.63;7.22;;;11.30;81.70;;;;;;5046267;28;20059;-74
2021/12/25 10:31:51;;;;;;;11.68;7.70;;;11.30;81.50;;;;;;5028283;28;20037;-73
2021/12/25 10:34:22;;;;;;;13.27;7.65;;;11.40;81.60;;;;;;5064854;28;20059;-74
2021/12/25 10:36:49;;;;;;;9.63;7.13;;;11.50;81.70;;;;;;5066006;28;20036;-74
2021/12/25 10:39:21;;;;;;;13.95;7.95;;;11.50;81.50;;;;;;5048732;28;20036;-74
2021/12/25 10:41:56;;;;;;;12.07;7.32;;;11.50;81.40;;;;;;5048481;28;20050;-74
2021/12/25 10:44:28;;;;;;;10.55;6.63;;;11.60;81.40;;;;;;5047690;28;20191;-73
2021/12/25 10:46:59;;;;;;;11.80;7.90;;;11.70;81.50;;;;;;5066454;28;20062;-73
2021/12/25 10:49:33;;;;;;;11.52;7.97;;;11.70;81.40;;;;;;5048223;28;20032;-73
2021/12/25 10:52:31;;;;;;;11.00;7.55;;;11.70;81.20;;;;;;5065642;28;20139;-74
2021/12/25 10:55:04;;;;;;;10.05;7.38;;;11.70;81.10;;;;;;5041026;28;20036;-75
2021/12/25 10:57:34;;;;;;;13.50;9.88;;;11.80;81.30;;;;;;5086170;28;20044;-73
2021/12/25 11:00:03;;;;;;;12.10;7.72;;;11.80;81.20;;;;;;5083653;28;20460;-74
2021/12/25 11:02:31;;;;;;;11.52;8.23;;;11.90;81.30;;;;;;5078269;28;20035;-76
2021/12/25 11:04:58;;;;;;;10.23;6.88;;;11.90;81.10;;;;;;5045308;28;20031;-74
2021/12/25 11:07:25;;;;;;;11.35;7.68;;;12.00;81.20;;;;;;5044632;28;20047;-74
2021/12/25 11:10:11;;;;;;;12.07;7.82;;;12.00;81.50;;;;;;5045556;28;20040;-76
2021/12/25 11:12:37;;;;;;;13.48;8.23;;;12.10;81.00;;;;;;5045330;28;20040;-72
2021/12/25 11:15:19;;;;;;;15.98;8.50;;;12.20;81.20;;;;;;5046165;28;20431;-72
2021/12/25 11:17:51;;;;;;;13.50;8.32;;;12.30;81.60;;;;;;5045340;28;20043;-72
2021/12/25 11:20:28;;;;;;;10.05;7.88;;;12.40;81.60;;;;;;5045865;28;20049;-72
2021/12/25 11:22:57;;;;;;;12.40;7.40;;;12.50;81.70;;;;;;5054317;28;20038;-73
2021/12/25 11:25:26;;;;;;;10.85;7.25;;;12.50;81.60;;;;;;5077817;28;20038;-74
2021/12/25 11:27:54;;;;;;;14.15;7.50;;;12.50;81.60;;;;;;5054449;28;20039;-74
2021/12/25 11:30:22;;;;;;;10.48;7.45;;;12.40;81.40;;;;;;5049053;28;20428;-72
2021/12/25 11:32:49;;;;;;;12.60;8.75;;;12.40;81.50;;;;;;5073123;28;20445;-73
2021/12/25 11:35:17;;;;;;;9.30;6.88;;;12.40;81.50;;;;;;5046147;28;20025;-73
2021/12/25 11:37:43;;;;;;;12.57;8.02;;;12.40;81.60;;;;;;5043775;28;20269;-73
2021/12/25 11:40:11;;;;;;;10.07;7.00;;;12.40;81.70;;;;;;5081020;28;20428;-73
2021/12/25 11:42:45;;;;;;;8.35;6.53;;;12.40;81.70;;;;;;5058194;28;20067;-73
2021/12/25 11:45:23;;;;;;;10.27;7.47;;;12.30;81.50;;;;;;5028018;28;20033;-73
2021/12/25 11:47:52;;;;;;;10.98;7.85;;;12.30;81.50;;;;;;5044755;28;20056;-73
2021/12/25 11:50:24;;;;;;;13.13;7.90;;;12.30;81.60;;;;;;5030455;28;20029;-73
2021/12/25 11:58:42;;;;;;;11.52;7.70;;;12.20;81.30;;;;;;5075132;28;20033;-73
2021/12/25 12:01:27;;;;;;;11.75;8.07;;;12.20;81.30;;;;;;5027369;28;20033;-73
2021/12/25 12:04:04;;;;;;;9.25;6.70;;;12.20;81.30;;;;;;5059079;28;20021;-73
2021/12/25 12:07:04;;;;;;;10.00;7.70;;;12.20;81.30;;;;;;5071163;28;20020;-73
2021/12/25 12:09:54;;;;;;;9.90;6.85;;;12.20;81.30;;;;;;5012946;28;20094;-73
2021/12/25 12:12:39;;;;;;;10.48;8.30;;;12.20;81.40;;;;;;5045853;28;20086;-73
2021/12/25 12:15:24;;;;;;;11.43;8.13;;;12.20;81.30;;;;;;5068887;28;20238;-73
2021/12/25 12:18:24;;;;;;;11.15;7.93;;;12.20;81.20;;;;;;5058179;28;20060;-73
2021/12/25 12:20:52;;;;;;;8.60;7.45;;;12.20;81.20;;;;;;5054522;28;20044;-73
2021/12/25 12:23:40;;;;;;;11.10;8.30;;;12.20;81.10;;;;;;5059074;28;20032;-73
2021/12/25 12:26:09;;;;;;;12.00;7.90;;;12.20;81.10;;;;;;5078003;28;20054;-73
2021/12/25 12:28:54;;;;;;;16.13;9.73;;;12.30;81.10;;;;;;5075500;28;20565;-74
2021/12/25 12:31:41;;;;;;;14.57;9.70;;;12.30;81.10;;;;;;5071024;28;20036;-73
2021/12/25 12:34:38;;;;;;;13.65;9.40;;;12.40;81.60;;;;;;5070728;28;20036;-73
2021/12/25 12:37:16;;;;;;;12.25;9.20;;;12.50;81.80;;;;;;5081957;28;20048;-72
2021/12/25 12:39:59;;;;;;;14.60;9.43;;;12.40;81.60;;;;;;5053384;28;20342;-73
2021/12/25 12:42:40;;;;;;;14.93;10.10;;;12.50;81.80;;;;;;5063862;28;20033;-71
2021/12/25 12:45:16;;;;;;;16.15;11.30;;;12.50;81.70;;;;;;5061018;28;20033;-71
2021/12/25 12:48:15;;;;;;;19.75;13.10;;;12.50;81.90;;;;;;5052974;28;20063;-71
2021/12/25 12:50:48;;;;;;;16.27;12.77;;;12.60;82.60;;;;;;5049232;28;20114;-70
2021/12/25 12:53:16;;;;;;;18.58;12.30;;;12.70;82.70;;;;;;5066773;28;20032;-71
2021/12/25 12:55:47;;;;;;;17.75;11.32;;;12.70;82.70;;;;;;5068102;28;20094;-71
2021/12/25 12:58:26;;;;;;;17.55;10.60;;;12.70;82.80;;;;;;5062637;28;20131;-71
2021/12/25 13:00:55;;;;;;;12.15;8.90;;;12.80;83.00;;;;;;5047449;28;20044;-71
2021/12/25 13:03:24;;;;;;;14.73;9.00;;;12.80;83.10;;;;;;5047630;28;20033;-71
2021/12/25 13:05:55;;;;;;;13.00;9.20;;;12.80;83.20;;;;;;5047884;28;20040;-71
2021/12/25 13:08:23;;;;;;;12.60;8.95;;;12.80;83.20;;;;;;5047083;28;20037;-70
2021/12/25 13:10:52;;;;;;;12.82;8.70;;;12.80;83.20;;;;;;5053195;28;20035;-72
2021/12/25 13:13:23;;;;;;;10.77;8.10;;;12.80;83.10;;;;;;5051839;28;20028;-72
2021/12/25 13:15:59;;;;;;;10.77;8.60;;;12.80;83.10;;;;;;5064792;28;20042;-73
2021/12/25 13:18:31;;;;;;;13.05;8.80;;;12.80;83.00;;;;;;5068405;28;20039;-73
2021/12/25 13:20:58;;;;;;;9.82;7.80;;;12.80;82.90;;;;;;5061801;28;20250;-72
2021/12/25 13:23:32;;;;;;;10.35;7.45;;;12.80;83.40;;;;;;5047650;28;20032;-73
2021/12/25 13:26:00;;;;;;;9.38;7.10;;;12.80;82.80;;;;;;5046470;28;20036;-73
2021/12/25 13:28:29;;;;;;;11.90;7.00;;;12.80;82.90;;;;;;5047026;28;20032;-72
2021/12/25 13:31:18;;;;;;;11.55;6.60;;;12.80;83.30;;;;;;5047712;28;20481;-72
2021/12/25 13:34:13;;;;;;;10.13;7.65;;;13.00;83.90;;;;;;5046684;28;20406;-72
2021/12/25 13:36:48;;;;;;;9.20;7.22;;;13.20;84.00;;;;;;5046427;28;20067;-74
2021/12/25 13:39:17;;;;;;;9.90;6.75;;;13.40;83.90;;;;;;5062798;28;20524;-73
2021/12/25 13:41:50;;;;;;;9.27;6.55;;;13.50;83.60;;;;;;5066556;28;20064;-72
2021/12/25 13:44:30;;;;;;;11.05;6.05;;;13.50;83.70;;;;;;5066529;28;20094;-72
2021/12/25 13:47:02;;;;;;;11.27;6.43;;;13.50;83.10;;;;;;5067054;28;20053;-72
2021/12/25 13:49:44;;;;;;;11.07;5.90;;;13.50;83.00;;;;;;5060765;28;20112;-72
2021/12/25 13:52:11;;;;;;;8.52;6.30;;;13.50;83.00;;;;;;5066883;28;20025;-72
2021/12/25 13:54:41;;;;;;;9.63;5.93;;;13.50;83.00;;;;;;5046857;28;20366;-73
2021/12/25 13:57:09;;;;;;;8.50;6.60;;;13.50;83.10;;;;;;5045875;28;20378;-72
2021/12/25 13:59:35;;;;;;;8.85;6.47;;;13.50;83.10;;;;;;5046316;28;20079;-72
2021/12/25 14:02:06;;;;;;;9.02;5.72;;;13.40;83.00;;;;;;5046366;28;20473;-72
2021/12/25 14:04:33;;;;;;;8.30;5.57;;;13.40;83.00;;;;;;5046054;28;20029;-73
2021/12/25 14:07:00;;;;;;;8.25;5.32;;;13.40;83.10;;;;;;5028591;28;20056;-72
2021/12/25 14:09:26;;;;;;;6.72;5.05;;;13.40;83.10;;;;;;5052637;28;20037;-73
2021/12/25 14:11:54;;;;;;;6.20;5.18;;;13.40;83.20;;;;;;5048716;28;20059;-72
2021/12/25 14:14:24;;;;;;;6.13;5.30;;;13.40;83.20;;;;;;5064709;28;20029;-73
2021/12/25 14:16:51;;;;;;;6.88;4.45;;;13.40;83.20;;;;;;5066297;28;20131;-72
2021/12/25 14:19:18;;;;;;;7.47;5.25;;;13.40;83.30;;;;;;5065878;28;20098;-72
2021/12/25 14:21:56;;;;;;;5.82;3.95;;;13.40;83.20;;;;;;5065869;28;20079;-72
2021/12/25 14:24:22;;;;;;;5.38;4.70;;;13.40;83.20;;;;;;5065974;28;20036;-72
2021/12/25 14:26:49;;;;;;;4.47;3.53;;;13.40;83.20;;;;;;5048274;28;20115;-72
2021/12/25 14:29:27;;;;;;;5.03;4.15;;;13.40;83.20;;;;;;5066101;28;20044;-72
2021/12/25 14:31:54;;;;;;;5.43;4.10;;;13.40;83.20;;;;;;5066560;28;20135;-72
2021/12/25 14:34:27;;;;;;;5.43;4.18;;;13.30;83.00;;;;;;5065234;28;20032;-72
2021/12/25 14:36:53;;;;;;;5.38;4.25;;;13.30;83.00;;;;;;5065749;28;20472;-72